Time;durP1;ratioP1;P1;durP2;ratioP2;P2;SDS_P1;SDS_P2;PMS_P1;PMS_P2;Temp;Humidity;BMP_temperature;BMP_pressure;BME280_temperature;BME280_humidity;BME280_pressure;Samples;Min_cycle;Max_cycle;Signal;HPM_P1;HPM_P2
2023/11/18 00:01:44;;;;;;;9.85;6.20;;;;;;;1.76;100.00;102363.06;5097076;28;20513;-69
2023/11/18 00:04:15;;;;;;;8.70;5.50;;;;;;;1.91;100.00;102382.38;5097127;28;20043;-69
2023/11/18 00:06:43;;;;;;;7.88;6.13;;;;;;;1.95;100.00;102375.06;5097959;28;20111;-69
2023/11/18 00:09:13;;;;;;;8.60;5.63;;;;;;;2.11;100.00;102376.56;5097801;28;20383;-69
2023/11/18 00:11:39;;;;;;;9.40;6.43;;;;;;;2.02;100.00;102369.25;5096506;28;20123;-69
2023/11/18 00:14:04;;;;;;;7.47;6.10;;;;;;;1.95;100.00;102372.41;5096397;28;20516;-69
2023/11/18 00:16:30;;;;;;;7.70;5.90;;;;;;;1.85;100.00;102374.84;5079649;28;20031;-69
2023/11/18 00:18:55;;;;;;;7.47;5.57;;;;;;;1.78;100.00;102376.22;5079526;28;20032;-69
2023/11/18 00:21:21;;;;;;;7.78;5.70;;;;;;;1.91;100.00;102368.28;5096282;28;20097;-69
2023/11/18 00:23:48;;;;;;;8.60;6.03;;;;;;;1.80;100.00;102361.88;5097160;28;20028;-69
2023/11/18 00:26:14;;;;;;;10.25;5.88;;;;;;;1.76;100.00;102351.59;5079696;28;20020;-70
2023/11/18 00:28:39;;;;;;;9.02;5.93;;;;;;;1.82;100.00;102375.03;5097536;28;20027;-69
2023/11/18 00:31:06;;;;;;;9.25;5.68;;;;;;;1.94;99.31;102376.88;5079114;28;20398;-68
2023/11/18 00:33:31;;;;;;;7.65;5.60;;;;;;;1.90;99.02;102375.38;5096300;28;20028;-69
2023/11/18 00:35:57;;;;;;;8.45;5.97;;;;;;;1.86;98.94;102376.56;5097519;28;20024;-69
2023/11/18 00:38:23;;;;;;;8.45;6.35;;;;;;;1.83;98.85;102379.41;5096600;28;20081;-69
2023/11/18 00:40:48;;;;;;;7.28;6.10;;;;;;;1.80;98.40;102387.59;5079351;28;20032;-68
2023/11/18 00:43:13;;;;;;;8.98;7.03;;;;;;;1.75;98.87;102385.22;5096396;28;20130;-69
2023/11/18 00:45:40;;;;;;;8.98;6.35;;;;;;;1.85;97.85;102386.31;5097265;28;20098;-70
2023/11/18 00:48:06;;;;;;;10.02;6.93;;;;;;;1.78;97.87;102382.34;5097183;28;20035;-68
2023/11/18 00:50:33;;;;;;;9.77;6.28;;;;;;;1.74;97.62;102380.88;5095431;28;20027;-69
2023/11/18 00:52:58;;;;;;;8.05;6.10;;;;;;;1.79;97.89;102385.88;5075577;28;20016;-68
2023/11/18 00:55:25;;;;;;;7.68;6.22;;;;;;;1.80;97.36;102385.78;5096298;28;20051;-68
2023/11/18 00:57:50;;;;;;;9.02;6.55;;;;;;;1.78;96.73;102382.34;5095176;28;20061;-69
2023/11/18 01:00:18;;;;;;;7.35;6.22;;;;;;;1.75;96.98;102382.56;5092593;28;20102;-69
2023/11/18 01:02:44;;;;;;;9.27;6.47;;;;;;;1.73;96.76;102391.59;5079271;28;20028;-69
2023/11/18 01:05:10;;;;;;;9.18;6.70;;;;;;;1.79;96.46;102391.19;5095844;28;20043;-69
2023/11/18 01:07:37;;;;;;;7.35;6.28;;;;;;;1.77;95.66;102385.97;5095910;28;20036;-69
2023/11/18 01:10:03;;;;;;;8.88;6.65;;;;;;;1.76;96.50;102386.94;5097026;28;20072;-69
2023/11/18 01:12:29;;;;;;;8.98;6.53;;;;;;;1.75;96.22;102389.69;5095734;28;20456;-69
2023/11/18 01:14:54;;;;;;;8.35;6.35;;;;;;;1.71;96.23;102389.03;5096929;28;20021;-68
2023/11/18 01:17:21;;;;;;;7.32;6.13;;;;;;;1.62;96.64;102384.34;5096087;28;20036;-69
2023/11/18 01:19:47;;;;;;;9.93;6.05;;;;;;;1.68;96.53;102388.41;5096732;28;20390;-68
2023/11/18 01:22:12;;;;;;;7.72;6.55;;;;;;;1.64;96.81;102396.56;5078760;28;20036;-69
2023/11/18 01:24:38;;;;;;;8.23;6.22;;;;;;;1.67;97.00;102392.84;5096323;28;20548;-69
2023/11/18 01:27:03;;;;;;;7.60;6.68;;;;;;;1.72;96.49;102392.53;5095146;28;20032;-68
2023/11/18 01:29:29;;;;;;;8.52;6.93;;;;;;;1.72;95.46;102382.75;5093408;28;20032;-69
2023/11/18 01:31:58;;;;;;;8.85;7.15;;;;;;;1.70;96.23;102390.00;5073982;28;20077;-69
2023/11/18 01:34:23;;;;;;;8.63;6.55;;;;;;;1.70;95.65;102387.34;5078419;28;20051;-69
2023/11/18 01:36:50;;;;;;;8.25;6.47;;;;;;;1.70;95.56;102381.19;5096311;28;20566;-69
2023/11/18 01:39:20;;;;;;;8.93;6.65;;;;;;;1.65;95.77;102379.66;5096406;28;20097;-69
2023/11/18 01:41:46;;;;;;;9.98;6.05;;;;;;;1.64;95.26;102382.44;5095960;28;20031;-69
2023/11/18 01:44:13;;;;;;;8.07;6.18;;;;;;;1.61;95.09;102383.50;5096226;28;20028;-69
2023/11/18 01:46:40;;;;;;;8.43;6.53;;;;;;;1.63;95.38;102384.25;5094460;28;20052;-69
2023/11/18 01:49:08;;;;;;;7.90;6.03;;;;;;;1.60;95.18;102388.91;5095147;28;20036;-69
2023/11/18 01:51:35;;;;;;;9.68;6.03;;;;;;;1.58;95.17;102388.16;5095609;28;20106;-69
2023/11/18 01:54:01;;;;;;;8.57;5.90;;;;;;;1.45;95.54;102376.66;5103580;28;20024;-69
2023/11/18 01:56:28;;;;;;;8.75;5.97;;;;;;;1.54;94.96;102381.34;5110437;28;20023;-69
2023/11/18 01:58:53;;;;;;;7.82;6.00;;;;;;;1.54;94.80;102387.50;5109050;28;20117;-69
2023/11/18 02:01:19;;;;;;;8.45;5.90;;;;;;;1.49;94.90;102380.78;5082023;28;20130;-69
2023/11/18 02:03:45;;;;;;;7.25;5.68;;;;;;;1.47;94.94;102386.22;5094883;28;20032;-69
2023/11/18 02:06:10;;;;;;;8.75;5.75;;;;;;;1.45;95.59;102379.31;5096302;28;20111;-70
2023/11/18 02:08:37;;;;;;;7.40;5.82;;;;;;;1.46;95.70;102384.53;5077600;28;20032;-70
2023/11/18 02:11:15;;;;;;;7.18;5.82;;;;;;;1.47;94.88;102383.56;5096085;28;20028;-69
2023/11/18 02:13:41;;;;;;;8.50;5.93;;;;;;;1.42;95.27;102377.69;5096431;28;20020;-70
2023/11/18 02:16:08;;;;;;;7.32;5.50;;;;;;;1.47;95.18;102390.69;5095177;28;20111;-69
2023/11/18 02:18:36;;;;;;;8.57;5.35;;;;;;;1.35;94.96;102382.56;5096119;28;20035;-69
2023/11/18 02:21:02;;;;;;;8.07;5.45;;;;;;;1.38;95.69;102384.16;5094517;28;20027;-69
2023/11/18 02:23:28;;;;;;;6.95;5.38;;;;;;;1.40;95.19;102384.91;5077347;28;20032;-69
2023/11/18 02:25:55;;;;;;;6.50;5.13;;;;;;;1.39;95.63;102384.06;5095875;28;20035;-69
2023/11/18 02:28:21;;;;;;;6.85;4.88;;;;;;;1.38;95.80;102392.97;5096879;28;20020;-69
2023/11/18 02:30:49;;;;;;;8.98;5.88;;;;;;;1.41;95.64;102392.75;5095229;28;20042;-69
2023/11/18 02:33:39;;;;;;;6.13;5.15;;;;;;;1.47;94.92;102390.69;5098797;28;20410;-70
2023/11/18 02:36:24;;;;;;;6.75;5.20;;;;;;;1.30;94.84;102360.81;5097431;28;20039;-69
2023/11/18 02:38:50;;;;;;;7.20;5.50;;;;;;;1.40;94.92;102396.38;5095958;28;20026;-69
2023/11/18 02:41:18;;;;;;;7.43;5.78;;;;;;;1.38;94.87;102392.97;5094555;28;20040;-70
2023/11/18 02:43:45;;;;;;;6.25;5.10;;;;;;;1.38;94.95;102392.13;5096204;28;20024;-70
2023/11/18 02:46:12;;;;;;;7.65;5.07;;;;;;;1.35;94.63;102393.16;5096404;28;20039;-69
2023/11/18 02:48:38;;;;;;;7.05;5.30;;;;;;;1.16;95.04;102364.38;5096280;28;20065;-71
2023/11/18 02:51:04;;;;;;;7.40;5.45;;;;;;;1.32;94.78;102389.88;5096712;28;20081;-69
2023/11/18 02:53:30;;;;;;;8.10;5.35;;;;;;;1.30;94.55;102389.97;5092682;28;20416;-69
2023/11/18 02:56:02;;;;;;;6.70;5.38;;;;;;;1.24;94.34;102378.91;5090616;28;20498;-70
2023/11/18 02:58:31;;;;;;;7.20;5.22;;;;;;;1.27;94.55;102382.22;5093609;28;20123;-69
2023/11/18 03:00:59;;;;;;;5.63;4.85;;;;;;;1.15;94.33;102360.00;5097311;28;20063;-69
2023/11/18 03:03:25;;;;;;;6.13;4.88;;;;;;;1.32;94.47;102392.50;5095853;28;20036;-69
2023/11/18 03:05:51;;;;;;;6.45;5.10;;;;;;;1.32;94.30;102398.66;5077335;28;20020;-69
2023/11/18 03:08:16;;;;;;;9.88;5.18;;;;;;;1.37;94.45;102395.72;5097814;28;20032;-69
2023/11/18 03:10:44;;;;;;;6.88;5.10;;;;;;;1.40;94.14;102387.56;5097537;28;20047;-70
2023/11/18 03:13:10;;;;;;;6.80;4.90;;;;;;;1.38;94.67;102392.97;5097376;28;20077;-70
2023/11/18 03:15:35;;;;;;;6.30;4.47;;;;;;;1.47;94.46;102394.19;5097628;28;20032;-69
2023/11/18 03:18:01;;;;;;;6.93;4.53;;;;;;;1.50;94.07;102386.00;5098617;28;20158;-69
2023/11/18 03:20:28;;;;;;;9.40;5.25;;;;;;;1.49;93.65;102380.78;5097369;28;20631;-69
2023/11/18 03:22:55;;;;;;;7.63;5.05;;;;;;;1.31;94.72;102383.72;5095776;28;20516;-70
2023/11/18 03:25:23;;;;;;;8.02;4.72;;;;;;;1.31;94.47;102361.66;5095944;28;20020;-69
2023/11/18 03:27:49;;;;;;;7.05;5.20;;;;;;;1.38;94.06;102370.91;5098563;28;20495;-68
2023/11/18 03:30:14;;;;;;;6.75;5.70;;;;;;;1.37;94.14;102374.50;5099460;28;20032;-69
2023/11/18 03:32:40;;;;;;;6.93;5.28;;;;;;;1.33;94.47;102373.03;5097659;28;20047;-69
2023/11/18 03:35:08;;;;;;;7.78;5.55;;;;;;;1.36;94.68;102372.81;5097696;28;20097;-69
2023/11/18 03:37:43;;;;;;;7.47;5.47;;;;;;;1.32;94.40;102358.88;5098564;28;20042;-69
2023/11/18 03:40:11;;;;;;;7.13;5.57;;;;;;;1.34;94.02;102367.59;5098639;28;20047;-69
2023/11/18 03:42:37;;;;;;;6.90;5.32;;;;;;;1.32;94.34;102360.69;5096992;28;20390;-70
2023/11/18 03:45:04;;;;;;;8.27;5.75;;;;;;;1.25;94.18;102349.63;5097044;28;20034;-69
2023/11/18 03:47:30;;;;;;;10.02;6.07;;;;;;;1.15;94.26;102338.78;5097190;28;20062;-70
2023/11/18 03:49:58;;;;;;;7.22;5.78;;;;;;;1.25;94.32;102360.25;5080153;28;20600;-69
2023/11/18 03:52:23;;;;;;;8.15;6.20;;;;;;;1.25;94.74;102373.50;5097890;28;20099;-69
2023/11/18 03:54:49;;;;;;;7.28;5.63;;;;;;;1.14;94.29;102357.44;5096721;28;20196;-69
2023/11/18 03:57:14;;;;;;;7.63;5.95;;;;;;;1.24;94.37;102368.31;5096420;28;20036;-69
2023/11/18 03:59:43;;;;;;;7.85;5.68;;;;;;;1.05;93.86;102342.13;5096618;28;20141;-69
2023/11/18 04:02:10;;;;;;;9.52;6.07;;;;;;;1.20;94.33;102367.66;5097027;28;20055;-69
2023/11/18 04:04:37;;;;;;;8.93;5.78;;;;;;;0.71;94.00;102296.63;5095795;28;20042;-68
2023/11/18 04:07:03;;;;;;;8.38;5.88;;;;;;;1.14;94.10;102365.41;5093814;28;20038;-69
2023/11/18 04:09:29;;;;;;;9.57;6.35;;;;;;;1.17;93.91;102362.56;5096221;28;20028;-69
2023/11/18 04:11:55;;;;;;;8.88;6.28;;;;;;;1.05;94.39;102342.97;5095852;28;20031;-69
2023/11/18 04:14:21;;;;;;;8.95;5.85;;;;;;;1.16;94.34;102358.22;5079494;28;20036;-69
2023/11/18 04:16:51;;;;;;;8.35;5.72;;;;;;;1.05;94.44;102321.78;5097875;28;20508;-70
2023/11/18 04:19:17;;;;;;;9.27;5.68;;;;;;;1.15;94.25;102336.13;5098093;28;20043;-69
2023/11/18 04:21:47;;;;;;;6.70;5.57;;;;;;;1.35;94.48;102358.69;5096395;28;20035;-69
2023/11/18 04:24:13;;;;;;;6.47;5.10;;;;;;;1.35;94.26;102355.19;5097545;28;20123;-69
2023/11/18 04:26:38;;;;;;;11.00;5.43;;;;;;;1.39;94.55;102365.50;5097940;28;20067;-69
2023/11/18 04:29:04;;;;;;;8.65;6.38;;;;;;;1.46;94.65;102362.44;5096628;28;20032;-69
2023/11/18 04:31:29;;;;;;;10.48;6.85;;;;;;;1.50;94.22;102361.28;5105515;28;20032;-69
2023/11/18 04:33:56;;;;;;;8.68;6.75;;;;;;;1.36;94.07;102333.03;5111148;28;20012;-69
2023/11/18 04:36:22;;;;;;;10.38;7.50;;;;;;;1.46;94.49;102333.25;5072561;28;20021;-69
2023/11/18 04:38:51;;;;;;;10.10;7.47;;;;;;;1.57;93.95;102360.78;5098015;28;20030;-69
2023/11/18 04:41:16;;;;;;;10.13;7.15;;;;;;;1.54;94.38;102346.88;5096804;28;20111;-69
2023/11/18 04:43:42;;;;;;;10.77;7.53;;;;;;;1.56;94.32;102342.31;5077125;28;20050;-69
2023/11/18 04:46:07;;;;;;;13.07;8.35;;;;;;;1.54;94.37;102325.66;5076555;28;20039;-69
2023/11/18 04:48:34;;;;;;;14.20;10.05;;;;;;;1.65;94.22;102347.00;5094604;28;20736;-69
2023/11/18 04:51:00;;;;;;;16.17;10.93;;;;;;;1.63;94.37;102339.16;5093949;28;20020;-69
2023/11/18 04:53:25;;;;;;;16.08;11.02;;;;;;;1.55;94.35;102330.84;5078067;28;20027;-69
2023/11/18 04:55:51;;;;;;;18.38;12.07;;;;;;;1.59;94.52;102331.47;5078724;28;20024;-69
2023/11/18 04:58:16;;;;;;;16.92;11.20;;;;;;;1.62;93.95;102326.84;5096142;28;20086;-68
2023/11/18 05:00:42;;;;;;;18.65;11.32;;;;;;;1.48;94.10;102312.78;5093758;28;20501;-69
2023/11/18 05:03:12;;;;;;;17.25;11.38;;;;;;;1.59;93.93;102342.09;5092214;28;20032;-69
2023/11/18 05:05:38;;;;;;;18.40;11.65;;;;;;;1.36;94.79;102307.38;5079166;28;20056;-69
2023/11/18 05:08:06;;;;;;;19.42;11.90;;;;;;;1.49;94.64;102317.13;5078316;28;20050;-69
2023/11/18 05:10:33;;;;;;;18.63;12.07;;;;;;;1.50;94.85;102317.03;5097601;28;20020;-68
2023/11/18 05:12:59;;;;;;;24.27;11.68;;;;;;;1.55;94.31;102319.38;5094991;28;20726;-69
2023/11/18 05:15:29;;;;;;;19.38;10.30;;;;;;;1.41;94.48;102299.94;5078707;28;20074;-69
2023/11/18 05:17:55;;;;;;;16.52;9.93;;;;;;;1.48;93.93;102316.28;5096200;28;20028;-69
2023/11/18 05:20:21;;;;;;;18.63;10.65;;;;;;;1.52;94.50;102320.44;5078403;28;20112;-69
2023/11/18 05:22:47;;;;;;;14.93;9.57;;;;;;;1.44;94.76;102313.94;5094286;28;20056;-69
2023/11/18 05:25:12;;;;;;;24.85;9.25;;;;;;;1.41;95.38;102318.50;5095544;28;20027;-69
2023/11/18 05:27:43;;;;;;;22.02;8.98;;;;;;;1.31;95.27;102296.19;5096222;28;20028;-69
2023/11/18 05:30:09;;;;;;;16.90;9.52;;;;;;;1.42;95.06;102300.78;5096487;28;20020;-69
2023/11/18 05:32:34;;;;;;;17.42;9.52;;;;;;;1.46;94.51;102312.03;5095083;28;20398;-69
2023/11/18 05:35:00;;;;;;;13.40;9.23;;;;;;;1.41;95.01;102301.75;5094574;28;20035;-69
2023/11/18 05:37:28;;;;;;;14.45;9.00;;;;;;;1.37;94.52;102301.09;5094487;28;20024;-69
2023/11/18 05:39:59;;;;;;;38.55;9.02;;;;;;;1.31;94.83;102300.66;5096332;28;20043;-69
2023/11/18 05:42:28;;;;;;;19.38;8.27;;;;;;;1.25;94.80;102286.00;5094587;28;20036;-69
2023/11/18 05:44:59;;;;;;;19.88;8.70;;;;;;;1.27;94.91;102291.22;5094601;28;20024;-69
2023/11/18 05:47:26;;;;;;;40.30;9.13;;;;;;;1.24;94.76;102297.56;5070231;28;20425;-69
2023/11/18 05:49:52;;;;;;;13.10;8.60;;;;;;;1.25;94.80;102295.75;5094574;28;20135;-69
2023/11/18 05:52:17;;;;;;;14.07;8.52;;;;;;;1.27;94.81;102299.16;5094005;28;20035;-69
2023/11/18 05:54:43;;;;;;;18.30;8.70;;;;;;;1.19;94.23;102294.34;5095570;28;20030;-69
2023/11/18 05:57:08;;;;;;;13.00;8.55;;;;;;;1.13;94.49;102286.84;5094330;28;20060;-69
2023/11/18 05:59:34;;;;;;;14.38;8.43;;;;;;;1.22;94.45;102306.56;5093953;28;20063;-69
2023/11/18 06:01:59;;;;;;;15.32;8.60;;;;;;;1.26;94.73;102314.22;5093707;28;20134;-69
2023/11/18 06:04:25;;;;;;;13.88;8.95;;;;;;;1.27;95.13;102313.28;5095912;28;20074;-70
2023/11/18 06:06:51;;;;;;;15.00;9.27;;;;;;;1.22;95.19;102307.41;5092547;28;20035;-69
2023/11/18 06:09:20;;;;;;;14.50;9.15;;;;;;;1.20;94.91;102292.56;5097624;28;20020;-69
2023/11/18 06:11:49;;;;;;;12.32;8.55;;;;;;;1.39;95.32;102309.81;5095432;28;20494;-69
2023/11/18 06:14:15;;;;;;;13.13;8.43;;;;;;;1.41;94.69;102312.34;5094960;28;20034;-69
2023/11/18 06:16:42;;;;;;;13.05;8.52;;;;;;;1.39;94.58;102312.47;5094486;28;20044;-69
2023/11/18 06:19:09;;;;;;;12.30;8.27;;;;;;;1.43;95.37;102321.06;5096085;28;20024;-69
2023/11/18 06:21:36;;;;;;;13.10;8.60;;;;;;;1.36;95.74;102328.59;5094516;28;20032;-69
2023/11/18 06:24:06;;;;;;;13.27;8.48;;;;;;;1.37;96.11;102334.72;5092367;28;20104;-69
2023/11/18 06:26:31;;;;;;;13.02;7.95;;;;;;;1.35;97.01;102324.22;5073903;28;20039;-69
2023/11/18 06:28:57;;;;;;;13.13;8.00;;;;;;;1.28;97.57;102328.22;5078761;28;20024;-69
2023/11/18 06:31:23;;;;;;;11.77;8.00;;;;;;;1.39;97.39;102324.84;5095163;28;20602;-69
2023/11/18 06:33:50;;;;;;;12.38;8.15;;;;;;;1.52;96.99;102336.34;5094473;28;20028;-69
2023/11/18 06:36:18;;;;;;;11.32;7.85;;;;;;;1.46;97.07;102336.78;5096132;28;20032;-70
2023/11/18 06:38:45;;;;;;;11.38;7.60;;;;;;;1.41;97.79;102333.56;5100045;28;20130;-70
2023/11/18 06:41:13;;;;;;;11.55;7.22;;;;;;;1.46;97.00;102318.22;5080989;28;20032;-69
2023/11/18 06:43:51;;;;;;;10.13;7.35;;;;;;;1.72;96.52;102337.66;5065922;28;20515;-69
2023/11/18 06:46:36;;;;;;;11.75;8.20;;;;;;;1.80;96.60;102338.00;5101927;28;20055;-68
2023/11/18 06:49:15;;;;;;;11.38;8.23;;;;;;;1.86;96.22;102340.25;5102272;28;20141;-69
2023/11/18 06:51:41;;;;;;;11.48;8.40;;;;;;;1.92;95.36;102346.06;5101403;28;20028;-68
2023/11/18 06:54:10;;;;;;;12.55;8.25;;;;;;;1.79;95.28;102354.03;5100239;28;20122;-70
2023/11/18 06:56:37;;;;;;;13.13;8.77;;;;;;;1.80;96.01;102337.16;5095479;28;20036;-70
2023/11/18 06:59:04;;;;;;;13.57;8.95;;;;;;;1.92;96.04;102338.97;5098512;28;20060;-70
2023/11/18 07:01:30;;;;;;;13.75;9.57;;;;;;;1.99;96.02;102342.91;5101136;28;20028;-68
2023/11/18 07:03:56;;;;;;;11.63;8.90;;;;;;;1.90;95.93;102348.00;5099394;28;20032;-67
2023/11/18 07:06:22;;;;;;;13.65;8.70;;;;;;;1.85;96.00;102321.75;5100842;28;20360;-68
2023/11/18 07:08:51;;;;;;;11.75;8.57;;;;;;;2.10;95.59;102347.47;5098496;28;20093;-69
2023/11/18 07:11:18;;;;;;;14.20;9.55;;;;;;;2.06;95.50;102351.31;5100869;28;20034;-67
2023/11/18 07:13:44;;;;;;;17.15;10.63;;;;;;;1.99;96.01;102355.34;5100026;28;20031;-68
2023/11/18 07:16:09;;;;;;;15.93;10.68;;;;;;;2.07;96.22;102356.50;5100840;28;20375;-71
2023/11/18 07:18:36;;;;;;;15.40;10.75;;;;;;;2.02;96.17;102360.41;5097727;28;20020;-71
2023/11/18 07:21:04;;;;;;;20.77;14.15;;;;;;;2.01;96.52;102364.88;5097967;28;20683;-70
2023/11/18 07:23:30;;;;;;;31.13;21.23;;;;;;;1.85;97.46;102353.59;5094148;28;20044;-70
2023/11/18 07:25:56;;;;;;;35.70;24.98;;;;;;;1.93;97.76;102359.25;5078666;28;20039;-70
2023/11/18 07:28:23;;;;;;;14.82;10.52;;;;;;;1.97;97.78;102354.59;5099115;28;20046;-70
2023/11/18 07:30:48;;;;;;;14.65;10.15;;;;;;;2.14;97.34;102356.06;5098230;28;20036;-70
2023/11/18 07:33:17;;;;;;;17.92;12.93;;;;;;;2.19;97.24;102360.13;5098065;28;20073;-71
2023/11/18 07:35:43;;;;;;;16.90;11.93;;;;;;;2.19;96.38;102365.44;5079814;28;20024;-70
2023/11/18 07:38:10;;;;;;;20.50;14.57;;;;;;;2.22;96.16;102359.03;5096493;28;20080;-70
2023/11/18 07:40:37;;;;;;;17.50;12.23;;;;;;;2.30;96.32;102370.84;5096059;28;20024;-70
2023/11/18 07:43:03;;;;;;;14.73;10.40;;;;;;;2.33;95.97;102360.00;5098824;28;20035;-70
2023/11/18 07:45:37;;;;;;;14.20;10.43;;;;;;;2.41;96.23;102370.06;5097971;28;20031;-70
2023/11/18 07:48:06;;;;;;;15.87;9.93;;;;;;;2.38;96.08;102366.78;5094969;28;20035;-70
2023/11/18 07:50:32;;;;;;;13.38;9.60;;;;;;;2.47;95.43;102377.63;5095271;28;20394;-70
2023/11/18 07:52:57;;;;;;;20.15;14.02;;;;;;;2.50;95.98;102387.19;5095047;28;20020;-70
2023/11/18 07:55:24;;;;;;;19.35;14.75;;;;;;;2.54;95.72;102381.53;5112255;28;20027;-70
2023/11/18 07:57:49;;;;;;;16.52;11.85;;;;;;;2.42;95.96;102357.63;5095244;28;20058;-70
2023/11/18 08:00:15;;;;;;;19.35;14.50;;;;;;;2.55;96.72;102380.59;5096198;28;20348;-70
2023/11/18 08:02:40;;;;;;;14.38;10.50;;;;;;;2.53;96.27;102368.38;5096971;28;20044;-70
2023/11/18 08:05:13;;;;;;;12.80;9.43;;;;;;;2.53;96.67;102371.03;5097569;28;20031;-70
2023/11/18 08:07:44;;;;;;;13.93;10.25;;;;;;;2.62;96.57;102373.06;5097959;28;20032;-70
2023/11/18 08:10:13;;;;;;;14.57;10.70;;;;;;;2.62;96.25;102365.06;5096208;28;20020;-70
2023/11/18 08:12:40;;;;;;;15.75;11.27;;;;;;;2.65;96.35;102356.88;5094558;28;20547;-69
2023/11/18 08:15:09;;;;;;;12.27;9.43;;;;;;;2.53;96.70;102376.34;5096268;28;20024;-69
2023/11/18 08:17:34;;;;;;;12.13;8.45;;;;;;;2.41;96.87;102370.06;5095425;28;20099;-69
2023/11/18 08:20:00;;;;;;;12.52;8.80;;;;;;;2.59;97.20;102381.25;5077933;28;20462;-70
2023/11/18 08:22:25;;;;;;;13.27;9.68;;;;;;;2.72;96.33;102381.22;5097781;28;20088;-70
2023/11/18 08:24:51;;;;;;;14.02;10.57;;;;;;;2.87;95.55;102373.94;5100502;28;20024;-70
2023/11/18 08:27:17;;;;;;;13.07;9.48;;;;;;;2.82;95.88;102374.28;5096291;28;20028;-70
2023/11/18 08:29:42;;;;;;;14.55;9.80;;;;;;;2.63;96.04;102372.09;5093987;28;20544;-70
2023/11/18 08:32:09;;;;;;;11.75;9.20;;;;;;;2.52;96.70;102378.16;5095527;28;20035;-70
2023/11/18 08:34:37;;;;;;;13.32;9.55;;;;;;;2.58;97.39;102379.53;5095904;28;20423;-70
2023/11/18 08:37:04;;;;;;;13.55;9.43;;;;;;;2.76;96.74;102372.06;5095588;28;20035;-70
2023/11/18 08:39:30;;;;;;;12.93;9.65;;;;;;;2.85;96.23;102373.19;5078762;28;20024;-70
2023/11/18 08:41:56;;;;;;;15.75;10.80;;;;;;;2.96;95.59;102383.94;5095647;28;20096;-70
2023/11/18 08:44:22;;;;;;;12.90;10.15;;;;;;;2.92;95.31;102374.47;5096967;28;20036;-70
2023/11/18 08:46:48;;;;;;;15.43;9.95;;;;;;;2.92;96.65;102374.47;5097220;28;20129;-70
2023/11/18 08:49:17;;;;;;;15.25;10.40;;;;;;;2.66;96.88;102355.94;5096880;28;20051;-70
2023/11/18 08:51:42;;;;;;;16.05;10.75;;;;;;;2.67;96.98;102343.47;5096014;28;20024;-70
2023/11/18 08:54:22;;;;;;;13.27;10.40;;;;;;;2.87;96.02;102363.31;5096130;28;20020;-70
2023/11/18 08:56:54;;;;;;;11.57;8.57;;;;;;;2.64;97.57;102352.50;5097348;28;20024;-70
2023/11/18 08:59:24;;;;;;;11.68;8.57;;;;;;;2.40;98.25;102346.28;5096608;28;20047;-70
2023/11/18 09:01:55;;;;;;;11.02;8.73;;;;;;;2.67;98.04;102349.63;5095749;28;20472;-70
2023/11/18 09:04:24;;;;;;;11.85;8.15;;;;;;;2.50;97.95;102348.19;5097821;28;20016;-70
2023/11/18 09:06:53;;;;;;;12.10;8.10;;;;;;;2.25;99.93;102348.19;5096231;28;20396;-70
2023/11/18 09:09:28;;;;;;;11.77;8.48;;;;;;;2.53;98.13;102342.66;5095954;28;20456;-70
2023/11/18 09:11:57;;;;;;;;;;;;;;;2.84;97.29;102359.06;5097643;28;20035;-70
2023/11/18 09:14:26;;;;;;;15.43;8.85;;;;;;;3.03;96.32;102361.25;5096997;28;19912;-70
2023/11/18 09:16:55;;;;;;;11.38;8.77;;;;;;;3.15;95.81;102367.50;5095130;28;20024;-69
2023/11/18 09:19:21;;;;;;;12.13;9.20;;;;;;;3.23;94.75;102360.63;5095427;28;20486;-70
2023/11/18 09:21:47;;;;;;;11.75;8.90;;;;;;;3.38;95.04;102371.09;5062653;28;20038;-69
2023/11/18 09:24:13;;;;;;;12.18;8.98;;;;;;;3.47;94.84;102375.72;5096516;28;20361;-69
2023/11/18 09:26:40;;;;;;;13.32;9.75;;;;;;;3.48;94.36;102380.13;5097369;28;20038;-70
2023/11/18 09:29:08;;;;;;;11.48;9.68;;;;;;;3.51;94.36;102374.56;5097557;28;20028;-70
2023/11/18 09:31:37;;;;;;;14.32;9.75;;;;;;;3.50;94.84;102378.16;5096060;28;20031;-70
2023/11/18 09:34:06;;;;;;;12.60;9.10;;;;;;;3.51;94.53;102379.88;5094547;28;20026;-70
2023/11/18 09:36:33;;;;;;;12.52;9.45;;;;;;;3.52;94.22;102382.41;5095292;28;20483;-70
2023/11/18 09:38:59;;;;;;;13.30;9.70;;;;;;;3.39;94.72;102370.16;5095836;28;20058;-70
2023/11/18 09:41:26;;;;;;;15.63;10.13;;;;;;;3.56;95.17;102377.72;5094721;28;20039;-70
2023/11/18 09:43:56;;;;;;;15.98;10.82;;;;;;;3.58;95.02;102375.81;5096571;28;20028;-70
2023/11/18 09:46:24;;;;;;;14.40;10.05;;;;;;;3.38;95.27;102348.03;5092674;28;20494;-70
2023/11/18 09:48:59;;;;;;;14.10;9.60;;;;;;;3.51;95.05;102339.97;5076940;28;20092;-70
2023/11/18 09:51:32;;;;;;;13.13;9.65;;;;;;;3.88;95.03;102375.28;5095691;28;20134;-70
2023/11/18 09:54:10;;;;;;;11.48;8.77;;;;;;;3.95;94.96;102368.53;5096370;28;20124;-69
2023/11/18 09:57:08;;;;;;;12.10;9.05;;;;;;;3.93;94.81;102348.31;5095822;28;20096;-70
2023/11/18 09:59:44;;;;;;;13.85;9.05;;;;;;;4.02;94.62;102355.59;5095289;28;20568;-71
2023/11/18 10:02:10;;;;;;;14.88;9.90;;;;;;;4.03;95.36;102353.78;5094225;28;20028;-71
2023/11/18 10:04:40;;;;;;;15.05;10.70;;;;;;;4.05;95.19;102342.03;5090826;28;20035;-70
2023/11/18 10:07:11;;;;;;;13.15;9.57;;;;;;;4.01;95.38;102340.59;5097615;28;20020;-70
2023/11/18 10:09:39;;;;;;;10.50;8.63;;;;;;;4.10;95.57;102339.00;5095522;28;20040;-68
2023/11/18 10:12:07;;;;;;;13.40;8.68;;;;;;;4.17;95.10;102334.88;5079911;28;20499;-69
2023/11/18 10:14:36;;;;;;;9.05;7.75;;;;;;;3.86;96.66;102337.28;5083583;28;20043;-71
2023/11/18 10:17:06;;;;;;;11.15;8.27;;;;;;;4.00;97.04;102328.22;5079624;28;20029;-70
2023/11/18 10:19:51;;;;;;;11.70;8.20;;;;;;;4.31;96.45;102331.16;5079645;28;20027;-69
2023/11/18 10:22:44;;;;;;;11.45;8.23;;;;;;;4.40;95.41;102338.41;5083157;28;20089;-70
2023/11/18 10:25:13;;;;;;;10.40;7.57;;;;;;;3.70;97.39;102295.00;5079270;28;20043;-70
2023/11/18 10:27:45;;;;;;;10.93;7.82;;;;;;;4.05;98.26;102346.53;5079191;28;20047;-70
2023/11/18 10:30:18;;;;;;;13.75;8.57;;;;;;;3.91;98.67;102336.94;5080657;28;20032;-70
2023/11/18 10:33:05;;;;;;;9.98;7.82;;;;;;;4.19;98.66;102336.47;5075955;28;20092;-70
2023/11/18 10:35:32;;;;;;;17.25;8.85;;;;;;;4.03;99.03;102322.66;5080086;28;20530;-70
2023/11/18 10:37:59;;;;;;;10.25;7.30;;;;;;;3.90;99.47;102322.75;5080739;28;20060;-71
2023/11/18 10:40:24;;;;;;;12.02;7.32;;;;;;;4.10;99.23;102328.34;5060632;28;20103;-71
2023/11/18 10:42:52;;;;;;;8.82;6.88;;;;;;;4.15;99.49;102327.03;5072828;28;20024;-71
2023/11/18 10:45:27;;;;;;;9.55;7.40;;;;;;;4.03;99.99;102327.97;5074851;28;20024;-70
2023/11/18 10:47:55;;;;;;;8.40;6.63;;;;;;;4.12;100.00;102294.47;5075957;28;20085;-70
2023/11/18 10:50:22;;;;;;;7.35;6.05;;;;;;;4.26;99.56;102326.19;5074554;28;20028;-70
2023/11/18 10:52:48;;;;;;;8.52;6.57;;;;;;;4.63;98.99;102328.59;5075499;28;20025;-71
2023/11/18 10:55:19;;;;;;;8.20;6.68;;;;;;;4.61;98.68;102326.06;5095724;28;20024;-70
2023/11/18 10:57:44;;;;;;;8.45;6.70;;;;;;;4.56;98.70;102319.41;5080403;28;20037;-70
2023/11/18 11:00:14;;;;;;;10.98;6.93;;;;;;;4.81;98.05;102326.28;5083264;28;20511;-70
2023/11/18 11:02:41;;;;;;;11.23;7.20;;;;;;;5.01;97.25;102327.34;5083092;28;20036;-69
2023/11/18 11:05:15;;;;;;;8.75;6.63;;;;;;;4.80;97.93;102327.22;5084620;28;20035;-69
2023/11/18 11:07:42;;;;;;;9.02;6.85;;;;;;;4.75;97.95;102329.44;5085626;28;20048;-69
2023/11/18 11:10:07;;;;;;;7.70;6.60;;;;;;;4.75;97.92;102318.78;5085387;28;20127;-69
2023/11/18 11:12:38;;;;;;;8.13;6.60;;;;;;;4.85;97.98;102325.06;5083942;28;20044;-69
2023/11/18 11:15:21;;;;;;;7.85;6.20;;;;;;;4.84;98.08;102323.38;5085208;28;20070;-69
2023/11/18 11:17:54;;;;;;;7.88;6.20;;;;;;;4.98;97.70;102322.25;5086252;28;20052;-70
2023/11/18 11:20:26;;;;;;;6.72;5.60;;;;;;;5.08;97.17;102325.84;5085611;28;20119;-71
2023/11/18 11:23:14;;;;;;;6.80;5.90;;;;;;;5.13;96.99;102328.97;5085077;28;20438;-70
2023/11/18 11:26:08;;;;;;;7.97;6.05;;;;;;;5.13;96.75;102332.50;5083180;28;20100;-70
2023/11/18 11:28:44;;;;;;;7.90;5.93;;;;;;;5.10;97.15;102332.75;5065857;28;20064;-70
2023/11/18 11:31:22;;;;;;;7.78;6.05;;;;;;;5.08;96.80;102331.19;5074810;28;20025;-70